EZY18QU EGNT-EGAA
Flight info
| Callsign | EZY18QU |
|---|---|
| Flight time | 0h 34m |
| Altitude | 23000 |
| Route | GIRL1T GIRLI P18 GASKO P16 CROFT Y70 KOLID L70 GUNTU Z196 DIGMA M146 IPSET P6 BELZU DCT |
| Aircraft | A320/M-V/N |
Departure
| Time | 2026-05-05 18:16 |
|---|---|
| Airport | Newcastle International Airport (EGNT) |
Arrival
| Time | 2026-05-05 18:50 |
|---|---|
| Airport | Belfast International Airport (EGAA) |
| Time | Latitude | Longitude | Altitude | Speed | Heading |
|---|---|---|---|---|---|
| 2026-05-05 18:02 | 55.03614 | -1.70934 | 275 ft | 0 kts | 274° |
| 2026-05-05 18:11 | 55.03614 | -1.70932 | 275 ft | 1 kts | 275° |
| 2026-05-05 18:11 | 55.03612 | -1.70906 | 275 ft | 2 kts | 291° |
| 2026-05-05 18:11 | 55.03605 | -1.70883 | 275 ft | 2 kts | 307° |
| 2026-05-05 18:12 | 55.03595 | -1.70865 | 275 ft | 2 kts | 324° |
| 2026-05-05 18:12 | 55.03582 | -1.70852 | 275 ft | 2 kts | 341° |
| 2026-05-05 18:12 | 55.03567 | -1.70847 | 275 ft | 2 kts | 358° |
| 2026-05-05 18:12 | 55.03560 | -1.70847 | 275 ft | 1 kts | 6° |
| 2026-05-05 18:13 | 55.03558 | -1.70848 | 275 ft | 0 kts | 5° |
| 2026-05-05 18:14 | 55.03587 | -1.70841 | 275 ft | 7 kts | 21° |
| 2026-05-05 18:14 | 55.03598 | -1.70769 | 275 ft | 5 kts | 99° |
| 2026-05-05 18:14 | 55.03592 | -1.70690 | 275 ft | 6 kts | 96° |
| 2026-05-05 18:15 | 55.03554 | -1.70647 | 275 ft | 8 kts | 171° |
| 2026-05-05 18:15 | 55.03493 | -1.70643 | 275 ft | 10 kts | 181° |
| 2026-05-05 18:15 | 55.03407 | -1.70612 | 275 ft | 15 kts | 133° |
| 2026-05-05 18:15 | 55.03406 | -1.70433 | 275 ft | 18 kts | 64° |
| 2026-05-05 18:16 | 55.03558 | -1.69861 | 275 ft | 95 kts | 65° |
| 2026-05-05 18:16 | 55.03939 | -1.68417 | 365 ft | 160 kts | 64° |
| 2026-05-05 18:16 | 55.04432 | -1.66586 | 1147 ft | 175 kts | 63° |
| 2026-05-05 18:16 | 55.04962 | -1.64637 | 1954 ft | 188 kts | 64° |
| 2026-05-05 18:17 | 55.05179 | -1.62298 | 2698 ft | 208 kts | 97° |
| 2026-05-05 18:17 | 55.04504 | -1.59921 | 3321 ft | 236 kts | 130° |
| 2026-05-05 18:17 | 55.03062 | -1.58330 | 3883 ft | 263 kts | 161° |
| 2026-05-05 18:17 | 55.01197 | -1.58145 | 4610 ft | 278 kts | 191° |
| 2026-05-05 18:18 | 54.99387 | -1.59278 | 5553 ft | 280 kts | 203° |
| 2026-05-05 18:18 | 54.97605 | -1.60627 | 6496 ft | 281 kts | 204° |
| 2026-05-05 18:18 | 54.95809 | -1.61988 | 7308 ft | 287 kts | 204° |
| 2026-05-05 18:18 | 54.93964 | -1.63379 | 8190 ft | 289 kts | 204° |
| 2026-05-05 18:19 | 54.92121 | -1.64762 | 9063 ft | 291 kts | 204° |
| 2026-05-05 18:19 | 54.90283 | -1.66136 | 9923 ft | 293 kts | 204° |
| 2026-05-05 18:19 | 54.88412 | -1.67532 | 10662 ft | 299 kts | 205° |
| 2026-05-05 18:19 | 54.86429 | -1.69012 | 11068 ft | 318 kts | 205° |
| 2026-05-05 18:20 | 54.84350 | -1.70558 | 11399 ft | 336 kts | 205° |
| 2026-05-05 18:20 | 54.82124 | -1.72220 | 11692 ft | 353 kts | 207° |
| 2026-05-05 18:20 | 54.80066 | -1.74668 | 11955 ft | 364 kts | 227° |
| 2026-05-05 18:20 | 54.78604 | -1.78334 | 12294 ft | 371 kts | 248° |
| 2026-05-05 18:21 | 54.77973 | -1.82655 | 12805 ft | 373 kts | 264° |
| 2026-05-05 18:21 | 54.77708 | -1.87176 | 13393 ft | 375 kts | 265° |
| 2026-05-05 18:21 | 54.77454 | -1.91718 | 13955 ft | 378 kts | 265° |
| 2026-05-05 18:21 | 54.77191 | -1.96262 | 14509 ft | 380 kts | 265° |
| 2026-05-05 18:22 | 54.76925 | -2.00821 | 15043 ft | 382 kts | 265° |
| 2026-05-05 18:22 | 54.76654 | -2.05434 | 15546 ft | 385 kts | 265° |
| 2026-05-05 18:22 | 54.76380 | -2.10082 | 16030 ft | 388 kts | 264° |
| 2026-05-05 18:22 | 54.76104 | -2.14723 | 16527 ft | 389 kts | 264° |
| 2026-05-05 18:23 | 54.75825 | -2.19408 | 16991 ft | 392 kts | 264° |
| 2026-05-05 18:23 | 54.75539 | -2.24159 | 17459 ft | 394 kts | 264° |
| 2026-05-05 18:23 | 54.75251 | -2.28911 | 17915 ft | 396 kts | 264° |
| 2026-05-05 18:23 | 54.74963 | -2.33643 | 18343 ft | 398 kts | 264° |
| 2026-05-05 18:24 | 54.74671 | -2.38422 | 18747 ft | 401 kts | 264° |
| 2026-05-05 18:24 | 54.74374 | -2.43234 | 19156 ft | 403 kts | 264° |
| 2026-05-05 18:24 | 54.74071 | -2.48114 | 19563 ft | 405 kts | 264° |
| 2026-05-05 18:24 | 54.73768 | -2.52964 | 19937 ft | 407 kts | 264° |
| 2026-05-05 18:25 | 54.73459 | -2.57870 | 20304 ft | 410 kts | 264° |
| 2026-05-05 18:25 | 54.73251 | -2.61163 | 20546 ft | 411 kts | 264° |
| 2026-05-05 18:25 | 54.72832 | -2.67749 | 21051 ft | 414 kts | 263° |
| 2026-05-05 18:25 | 54.72514 | -2.72713 | 21398 ft | 416 kts | 263° |
| 2026-05-05 18:26 | 54.72195 | -2.77643 | 21730 ft | 418 kts | 263° |
| 2026-05-05 18:26 | 54.71867 | -2.82689 | 22060 ft | 420 kts | 263° |
| 2026-05-05 18:26 | 54.71536 | -2.87749 | 22382 ft | 422 kts | 263° |
| 2026-05-05 18:26 | 54.71203 | -2.92809 | 22694 ft | 425 kts | 263° |
| 2026-05-05 18:27 | 54.70866 | -2.97905 | 22976 ft | 426 kts | 263° |
| 2026-05-05 18:27 | 54.70526 | -3.03000 | 23067 ft | 425 kts | 263° |
| 2026-05-05 18:27 | 54.70180 | -3.08160 | 23067 ft | 434 kts | 263° |
| 2026-05-05 18:27 | 54.69823 | -3.13439 | 23058 ft | 440 kts | 263° |
| 2026-05-05 18:28 | 54.69100 | -3.24033 | 23061 ft | 443 kts | 263° |
| 2026-05-05 18:28 | 54.68730 | -3.29400 | 23061 ft | 443 kts | 263° |
| 2026-05-05 18:28 | 54.68367 | -3.34644 | 23061 ft | 443 kts | 263° |
| 2026-05-05 18:29 | 54.67995 | -3.39989 | 23061 ft | 444 kts | 263° |
| 2026-05-05 18:29 | 54.67624 | -3.45272 | 22940 ft | 435 kts | 263° |
| 2026-05-05 18:29 | 54.67261 | -3.50402 | 22748 ft | 421 kts | 263° |
| 2026-05-05 18:29 | 54.66908 | -3.55345 | 22543 ft | 408 kts | 263° |
| 2026-05-05 18:30 | 54.66566 | -3.60122 | 22328 ft | 398 kts | 263° |
| 2026-05-05 18:30 | 54.66227 | -3.64841 | 22100 ft | 392 kts | 263° |
| 2026-05-05 18:30 | 54.65892 | -3.69475 | 21867 ft | 389 kts | 263° |
| 2026-05-05 18:30 | 54.65553 | -3.74126 | 21623 ft | 387 kts | 263° |
| 2026-05-05 18:31 | 54.65215 | -3.78748 | 21376 ft | 386 kts | 263° |
| 2026-05-05 18:31 | 54.64877 | -3.83343 | 21129 ft | 384 kts | 263° |
| 2026-05-05 18:31 | 54.64539 | -3.87918 | 20882 ft | 383 kts | 263° |
| 2026-05-05 18:31 | 54.64202 | -3.92441 | 20638 ft | 382 kts | 263° |
| 2026-05-05 18:32 | 54.63861 | -3.97011 | 20396 ft | 382 kts | 263° |
| 2026-05-05 18:32 | 54.63520 | -4.01545 | 20158 ft | 381 kts | 263° |
| 2026-05-05 18:32 | 54.63178 | -4.06082 | 19916 ft | 379 kts | 263° |
| 2026-05-05 18:32 | 54.62837 | -4.10577 | 19674 ft | 378 kts | 263° |
| 2026-05-05 18:33 | 54.62494 | -4.15086 | 19428 ft | 376 kts | 263° |
| 2026-05-05 18:33 | 54.62148 | -4.19592 | 19180 ft | 375 kts | 263° |
| 2026-05-05 18:33 | 54.61805 | -4.24051 | 18932 ft | 374 kts | 263° |
| 2026-05-05 18:33 | 54.61463 | -4.28460 | 18687 ft | 373 kts | 263° |
| 2026-05-05 18:34 | 54.61116 | -4.32930 | 18439 ft | 372 kts | 263° |
| 2026-05-05 18:34 | 54.60770 | -4.37351 | 18192 ft | 370 kts | 263° |
| 2026-05-05 18:34 | 54.60424 | -4.41763 | 17943 ft | 369 kts | 263° |
| 2026-05-05 18:34 | 54.60083 | -4.46088 | 17563 ft | 362 kts | 263° |
| 2026-05-05 18:35 | 54.59745 | -4.50356 | 17079 ft | 358 kts | 263° |
| 2026-05-05 18:35 | 54.59404 | -4.54647 | 16569 ft | 355 kts | 263° |
| 2026-05-05 18:35 | 54.59071 | -4.58818 | 16069 ft | 352 kts | 263° |
| 2026-05-05 18:35 | 54.58736 | -4.63010 | 15565 ft | 349 kts | 263° |
| 2026-05-05 18:36 | 54.58402 | -4.67155 | 15066 ft | 346 kts | 263° |
| 2026-05-05 18:36 | 54.58073 | -4.71224 | 14572 ft | 343 kts | 263° |
| 2026-05-05 18:36 | 54.57744 | -4.75282 | 14079 ft | 340 kts | 263° |
| 2026-05-05 18:36 | 54.57409 | -4.79379 | 13581 ft | 338 kts | 263° |
| 2026-05-05 18:37 | 54.57085 | -4.83333 | 13096 ft | 335 kts | 263° |
| 2026-05-05 18:37 | 54.56759 | -4.87300 | 12615 ft | 332 kts | 263° |
| 2026-05-05 18:37 | 54.56429 | -4.91279 | 12130 ft | 330 kts | 263° |
| 2026-05-05 18:37 | 54.56107 | -4.95152 | 11659 ft | 327 kts | 263° |
| 2026-05-05 18:38 | 54.55780 | -4.99052 | 11184 ft | 325 kts | 263° |
| 2026-05-05 18:38 | 54.55458 | -5.02892 | 10862 ft | 318 kts | 263° |
| 2026-05-05 18:38 | 54.55145 | -5.06606 | 10644 ft | 309 kts | 263° |
| 2026-05-05 18:38 | 54.54838 | -5.10235 | 10484 ft | 298 kts | 263° |
| 2026-05-05 18:39 | 54.54543 | -5.13715 | 10351 ft | 287 kts | 263° |
| 2026-05-05 18:39 | 54.54260 | -5.17039 | 10232 ft | 277 kts | 263° |
| 2026-05-05 18:39 | 54.53981 | -5.20304 | 10091 ft | 269 kts | 263° |
| 2026-05-05 18:39 | 54.53708 | -5.23504 | 9829 ft | 266 kts | 263° |
| 2026-05-05 18:40 | 54.53437 | -5.26651 | 9538 ft | 263 kts | 263° |
| 2026-05-05 18:40 | 54.53169 | -5.29761 | 9227 ft | 262 kts | 263° |
| 2026-05-05 18:40 | 54.52902 | -5.32856 | 8911 ft | 262 kts | 263° |
| 2026-05-05 18:40 | 54.52632 | -5.35964 | 8596 ft | 261 kts | 263° |
| 2026-05-05 18:41 | 54.52364 | -5.39039 | 8287 ft | 260 kts | 263° |
| 2026-05-05 18:41 | 54.52096 | -5.42124 | 7970 ft | 259 kts | 263° |
| 2026-05-05 18:41 | 54.52146 | -5.45217 | 7625 ft | 257 kts | 288° |
| 2026-05-05 18:41 | 54.52931 | -5.47888 | 7321 ft | 253 kts | 308° |
| 2026-05-05 18:42 | 54.53985 | -5.50338 | 7012 ft | 252 kts | 308° |
| 2026-05-05 18:42 | 54.55016 | -5.52763 | 6705 ft | 252 kts | 308° |
| 2026-05-05 18:42 | 54.56058 | -5.55220 | 6395 ft | 251 kts | 308° |
| 2026-05-05 18:42 | 54.57079 | -5.57630 | 6093 ft | 250 kts | 308° |
| 2026-05-05 18:43 | 54.58108 | -5.60059 | 5789 ft | 250 kts | 308° |
| 2026-05-05 18:43 | 54.59130 | -5.62475 | 5488 ft | 249 kts | 308° |
| 2026-05-05 18:43 | 54.60158 | -5.64908 | 5186 ft | 248 kts | 308° |
| 2026-05-05 18:43 | 54.61167 | -5.67300 | 4890 ft | 248 kts | 307° |
| 2026-05-05 18:44 | 54.62173 | -5.69685 | 4598 ft | 247 kts | 307° |
| 2026-05-05 18:44 | 54.63192 | -5.72103 | 4300 ft | 246 kts | 307° |
| 2026-05-05 18:44 | 54.64189 | -5.74473 | 4010 ft | 246 kts | 307° |
| 2026-05-05 18:44 | 54.65187 | -5.76847 | 3720 ft | 245 kts | 307° |
| 2026-05-05 18:45 | 54.66193 | -5.79241 | 3429 ft | 244 kts | 307° |
| 2026-05-05 18:45 | 54.67184 | -5.81604 | 3144 ft | 243 kts | 307° |
| 2026-05-05 18:45 | 54.68189 | -5.83999 | 2858 ft | 243 kts | 307° |
| 2026-05-05 18:45 | 54.69158 | -5.86315 | 2649 ft | 235 kts | 307° |
| 2026-05-05 18:46 | 54.70087 | -5.88537 | 2542 ft | 218 kts | 307° |
| 2026-05-05 18:46 | 54.70947 | -5.90594 | 2524 ft | 207 kts | 307° |
| 2026-05-05 18:46 | 54.71780 | -5.92589 | 2519 ft | 196 kts | 308° |
| 2026-05-05 18:46 | 54.72323 | -5.94666 | 2522 ft | 191 kts | 274° |
| 2026-05-05 18:47 | 54.72155 | -5.96940 | 2517 ft | 192 kts | 257° |
| 2026-05-05 18:47 | 54.71720 | -5.99121 | 2516 ft | 192 kts | 249° |
| 2026-05-05 18:47 | 54.71190 | -6.01244 | 2505 ft | 192 kts | 249° |
| 2026-05-05 18:47 | 54.70644 | -6.03355 | 2315 ft | 195 kts | 248° |
| 2026-05-05 18:48 | 54.70097 | -6.05434 | 2109 ft | 182 kts | 249° |
| 2026-05-05 18:48 | 54.69582 | -6.07366 | 1866 ft | 172 kts | 248° |
| 2026-05-05 18:48 | 54.69083 | -6.09227 | 1599 ft | 166 kts | 249° |
| 2026-05-05 18:48 | 54.68616 | -6.10950 | 1379 ft | 153 kts | 249° |
| 2026-05-05 18:49 | 54.68189 | -6.12540 | 1173 ft | 141 kts | 249° |
| 2026-05-05 18:49 | 54.67769 | -6.14088 | 989 ft | 141 kts | 249° |
| 2026-05-05 18:49 | 54.67347 | -6.15595 | 821 ft | 140 kts | 249° |
| 2026-05-05 18:49 | 54.66939 | -6.17125 | 654 ft | 140 kts | 250° |
| 2026-05-05 18:50 | 54.66533 | -6.18659 | 455 ft | 139 kts | 250° |
| 2026-05-05 18:50 | 54.66128 | -6.20167 | 278 ft | 136 kts | 248° |
| 2026-05-05 18:50 | 54.65813 | -6.21347 | 277 ft | 76 kts | 245° |
| 2026-05-05 18:50 | 54.65655 | -6.21945 | 277 ft | 38 kts | 261° |
| 2026-05-05 18:51 | 54.65762 | -6.22128 | 277 ft | 15 kts | 14° |
| 2026-05-05 18:51 | 54.65818 | -6.22009 | 277 ft | 15 kts | 64° |
| 2026-05-05 18:51 | 54.65866 | -6.21836 | 277 ft | 16 kts | 66° |
| 2026-05-05 18:51 | 54.65916 | -6.21654 | 277 ft | 15 kts | 62° |
| 2026-05-05 18:52 | 54.65967 | -6.21621 | 277 ft | 7 kts | 345° |
| 2026-05-05 18:52 | 54.66017 | -6.21667 | 277 ft | 7 kts | 303° |
| 2026-05-05 18:52 | 54.66012 | -6.21720 | 277 ft | 4 kts | 245° |
| 2026-05-05 18:52 | 54.65999 | -6.21769 | 277 ft | 4 kts | 244° |